Terminal Aerodrome Forecast
Issued by NWS

Home | Current Version | Previous Version | Text Only | Print | Product List | Glossary On
Versions: 1 2 3 4 5 6 7 8 9 10 11 12 13 14 15 16 17 18 19 20 21 22 23 24 25 26 27 28 29 30 31 32 33 34 35 36 37 38 39 40 41 42 43 44 45 46 47 48 49 50
000
FTUS43 KMKX 301300 AAA
TAFUES
TAF AMD
KUES 301300Z 3013/0112 05013G19KT P6SM -RA OVC009
     FM301600 05009KT 5SM BR VCSH BKN008 OVC010
     FM301800 05008KT 5SM BR VCSH SCT010 OVC015
     FM010000 05008KT 3SM -SHRA BR OVC008=

USA.gov is the U.S. government's official web portal to all federal, state and local government web resources and services.